sensor_id;sensor_type;location;lat;lon;timestamp;temperature;humidity
35240;DHT22;21376;50.954;4.716;2022-10-16T00:00:24;14.00;99.90
35240;DHT22;21376;50.954;4.716;2022-10-16T00:08:31;14.10;99.90
35240;DHT22;21376;50.954;4.716;2022-10-16T00:11:11;14.00;99.90
35240;DHT22;21376;50.954;4.716;2022-10-16T00:13:40;14.00;99.90
35240;DHT22;21376;50.954;4.716;2022-10-16T00:18:41;13.50;99.90
35240;DHT22;21376;50.954;4.716;2022-10-16T00:21:14;13.70;99.90
35240;DHT22;21376;50.954;4.716;2022-10-16T00:23:40;13.70;99.90
35240;DHT22;21376;50.954;4.716;2022-10-16T00:26:11;13.90;99.90
35240;DHT22;21376;50.954;4.716;2022-10-16T00:34:42;13.80;99.90
35240;DHT22;21376;50.954;4.716;2022-10-16T00:37:11;13.60;99.90
35240;DHT22;21376;50.954;4.716;2022-10-16T00:39:46;13.50;99.90
35240;DHT22;21376;50.954;4.716;2022-10-16T00:44:49;13.60;99.90
35240;DHT22;21376;50.954;4.716;2022-10-16T00:47:36;13.50;99.90
35240;DHT22;21376;50.954;4.716;2022-10-16T00:50:11;13.50;99.90
35240;DHT22;21376;50.954;4.716;2022-10-16T00:58:04;13.40;99.90
35240;DHT22;21376;50.954;4.716;2022-10-16T01:00:30;13.40;99.90
35240;DHT22;21376;50.954;4.716;2022-10-16T01:03:00;13.40;99.90
35240;DHT22;21376;50.954;4.716;2022-10-16T01:05:39;13.20;99.90
35240;DHT22;21376;50.954;4.716;2022-10-16T01:14:12;13.30;99.90
35240;DHT22;21376;50.954;4.716;2022-10-16T01:22:42;13.40;99.90
35240;DHT22;21376;50.954;4.716;2022-10-16T01:27:42;13.30;99.90
35240;DHT22;21376;50.954;4.716;2022-10-16T01:30:44;13.20;99.90
35240;DHT22;21376;50.954;4.716;2022-10-16T01:33:20;13.20;99.90
35240;DHT22;21376;50.954;4.716;2022-10-16T01:35:52;13.10;99.90
35240;DHT22;21376;50.954;4.716;2022-10-16T01:38:21;13.00;99.90
35240;DHT22;21376;50.954;4.716;2022-10-16T01:40:55;13.00;99.90
35240;DHT22;21376;50.954;4.716;2022-10-16T01:46:15;13.00;99.90
35240;DHT22;21376;50.954;4.716;2022-10-16T01:48:42;13.00;99.90
35240;DHT22;21376;50.954;4.716;2022-10-16T01:51:26;13.00;99.90
35240;DHT22;21376;50.954;4.716;2022-10-16T01:53:57;13.00;99.90
35240;DHT22;21376;50.954;4.716;2022-10-16T01:56:25;13.10;99.90
35240;DHT22;21376;50.954;4.716;2022-10-16T01:58:53;13.10;99.90
35240;DHT22;21376;50.954;4.716;2022-10-16T02:03:49;13.10;99.90
35240;DHT22;21376;50.954;4.716;2022-10-16T02:09:12;13.10;99.90
35240;DHT22;21376;50.954;4.716;2022-10-16T02:11:42;13.20;99.90
35240;DHT22;21376;50.954;4.716;2022-10-16T02:14:08;13.10;99.90
35240;DHT22;21376;50.954;4.716;2022-10-16T02:16:36;13.10;99.90
35240;DHT22;21376;50.954;4.716;2022-10-16T02:21:50;13.10;99.90
35240;DHT22;21376;50.954;4.716;2022-10-16T02:32:47;13.20;99.90
35240;DHT22;21376;50.954;4.716;2022-10-16T02:35:28;13.20;99.90
35240;DHT22;21376;50.954;4.716;2022-10-16T02:40:40;13.20;99.90
35240;DHT22;21376;50.954;4.716;2022-10-16T02:43:07;13.10;99.90
35240;DHT22;21376;50.954;4.716;2022-10-16T02:45:37;13.00;99.90
35240;DHT22;21376;50.954;4.716;2022-10-16T02:48:03;13.00;99.90
35240;DHT22;21376;50.954;4.716;2022-10-16T02:50:38;12.80;99.90
35240;DHT22;21376;50.954;4.716;2022-10-16T02:58:05;12.80;99.90
35240;DHT22;21376;50.954;4.716;2022-10-16T03:00:31;12.90;99.90
35240;DHT22;21376;50.954;4.716;2022-10-16T03:07:56;12.90;99.90
35240;DHT22;21376;50.954;4.716;2022-10-16T03:10:23;12.80;99.90
35240;DHT22;21376;50.954;4.716;2022-10-16T03:12:52;12.90;99.90
35240;DHT22;21376;50.954;4.716;2022-10-16T03:15:30;13.00;99.90
35240;DHT22;21376;50.954;4.716;2022-10-16T03:18:00;13.10;99.90
35240;DHT22;21376;50.954;4.716;2022-10-16T03:20:28;13.00;99.90
35240;DHT22;21376;50.954;4.716;2022-10-16T03:22:54;13.00;99.90
35240;DHT22;21376;50.954;4.716;2022-10-16T03:25:20;13.00;99.90
35240;DHT22;21376;50.954;4.716;2022-10-16T03:27:49;13.00;99.90
35240;DHT22;21376;50.954;4.716;2022-10-16T03:30:16;13.00;99.90
35240;DHT22;21376;50.954;4.716;2022-10-16T03:32:48;13.00;99.90
35240;DHT22;21376;50.954;4.716;2022-10-16T03:35:15;13.00;99.90
35240;DHT22;21376;50.954;4.716;2022-10-16T03:37:42;13.00;99.90
35240;DHT22;21376;50.954;4.716;2022-10-16T03:40:08;13.10;99.90
35240;DHT22;21376;50.954;4.716;2022-10-16T03:42:37;13.20;99.90
35240;DHT22;21376;50.954;4.716;2022-10-16T03:45:03;13.20;99.90
35240;DHT22;21376;50.954;4.716;2022-10-16T03:47:31;13.20;99.90
35240;DHT22;21376;50.954;4.716;2022-10-16T03:50:00;13.30;99.90
35240;DHT22;21376;50.954;4.716;2022-10-16T03:52:27;13.20;99.90
35240;DHT22;21376;50.954;4.716;2022-10-16T03:55:05;13.20;99.90
35240;DHT22;21376;50.954;4.716;2022-10-16T03:57:40;13.20;99.90
35240;DHT22;21376;50.954;4.716;2022-10-16T04:00:18;13.30;99.90
35240;DHT22;21376;50.954;4.716;2022-10-16T04:02:45;13.30;99.90
35240;DHT22;21376;50.954;4.716;2022-10-16T04:05:14;13.20;99.90
35240;DHT22;21376;50.954;4.716;2022-10-16T04:07:40;13.20;99.90
35240;DHT22;21376;50.954;4.716;2022-10-16T04:10:06;13.10;99.90
35240;DHT22;21376;50.954;4.716;2022-10-16T04:12:35;13.20;99.90
35240;DHT22;21376;50.954;4.716;2022-10-16T04:15:01;13.40;99.90
35240;DHT22;21376;50.954;4.716;2022-10-16T04:17:30;13.40;99.90
35240;DHT22;21376;50.954;4.716;2022-10-16T04:19:58;13.40;99.90
35240;DHT22;21376;50.954;4.716;2022-10-16T04:25:06;13.30;99.90
35240;DHT22;21376;50.954;4.716;2022-10-16T04:27:43;13.20;99.90
35240;DHT22;21376;50.954;4.716;2022-10-16T04:30:14;13.20;99.90
35240;DHT22;21376;50.954;4.716;2022-10-16T04:32:51;13.30;99.90
35240;DHT22;21376;50.954;4.716;2022-10-16T04:35:21;13.20;99.90
35240;DHT22;21376;50.954;4.716;2022-10-16T04:40:19;13.40;99.90
35240;DHT22;21376;50.954;4.716;2022-10-16T04:42:45;13.40;99.90
35240;DHT22;21376;50.954;4.716;2022-10-16T04:45:14;13.30;99.90
35240;DHT22;21376;50.954;4.716;2022-10-16T04:47:42;13.20;99.90
35240;DHT22;21376;50.954;4.716;2022-10-16T04:50:09;13.30;99.90
35240;DHT22;21376;50.954;4.716;2022-10-16T04:52:39;13.30;99.90
35240;DHT22;21376;50.954;4.716;2022-10-16T04:55:12;13.40;99.90
35240;DHT22;21376;50.954;4.716;2022-10-16T04:57:45;13.20;99.90
35240;DHT22;21376;50.954;4.716;2022-10-16T05:03:09;13.20;99.90
35240;DHT22;21376;50.954;4.716;2022-10-16T05:05:36;13.20;99.90
35240;DHT22;21376;50.954;4.716;2022-10-16T05:08:04;13.20;99.90
35240;DHT22;21376;50.954;4.716;2022-10-16T05:10:32;13.10;99.90
35240;DHT22;21376;50.954;4.716;2022-10-16T05:13:01;13.10;99.90
35240;DHT22;21376;50.954;4.716;2022-10-16T05:15:30;13.00;99.90
35240;DHT22;21376;50.954;4.716;2022-10-16T05:18:02;13.10;99.90
35240;DHT22;21376;50.954;4.716;2022-10-16T05:20:28;13.10;99.90
35240;DHT22;21376;50.954;4.716;2022-10-16T05:22:55;13.00;99.90
35240;DHT22;21376;50.954;4.716;2022-10-16T05:25:22;12.80;99.90
35240;DHT22;21376;50.954;4.716;2022-10-16T05:30:20;13.00;99.90
35240;DHT22;21376;50.954;4.716;2022-10-16T05:35:20;12.90;99.90
35240;DHT22;21376;50.954;4.716;2022-10-16T05:40:36;12.90;99.90
35240;DHT22;21376;50.954;4.716;2022-10-16T05:43:05;12.90;99.90
35240;DHT22;21376;50.954;4.716;2022-10-16T05:48:10;13.00;99.90
35240;DHT22;21376;50.954;4.716;2022-10-16T05:55:56;12.70;99.90
35240;DHT22;21376;50.954;4.716;2022-10-16T05:58:28;12.70;99.90
35240;DHT22;21376;50.954;4.716;2022-10-16T06:00:55;12.70;99.90
35240;DHT22;21376;50.954;4.716;2022-10-16T06:03:24;12.70;99.90
35240;DHT22;21376;50.954;4.716;2022-10-16T06:05:51;12.60;99.90
35240;DHT22;21376;50.954;4.716;2022-10-16T06:08:22;12.50;99.90
35240;DHT22;21376;50.954;4.716;2022-10-16T06:13:20;12.60;99.90
35240;DHT22;21376;50.954;4.716;2022-10-16T06:18:17;12.40;99.90
35240;DHT22;21376;50.954;4.716;2022-10-16T06:20:50;12.50;99.90
35240;DHT22;21376;50.954;4.716;2022-10-16T06:23:17;12.60;99.90
35240;DHT22;21376;50.954;4.716;2022-10-16T06:25:46;12.60;99.90
35240;DHT22;21376;50.954;4.716;2022-10-16T06:28:13;12.70;99.90
35240;DHT22;21376;50.954;4.716;2022-10-16T06:30:42;12.60;99.90
35240;DHT22;21376;50.954;4.716;2022-10-16T06:36:13;12.60;99.90
35240;DHT22;21376;50.954;4.716;2022-10-16T06:38:39;12.60;99.90
35240;DHT22;21376;50.954;4.716;2022-10-16T06:41:09;12.60;99.90
35240;DHT22;21376;50.954;4.716;2022-10-16T06:46:25;12.50;99.90
35240;DHT22;21376;50.954;4.716;2022-10-16T06:48:51;12.50;99.90
35240;DHT22;21376;50.954;4.716;2022-10-16T06:51:28;12.70;99.90
35240;DHT22;21376;50.954;4.716;2022-10-16T06:59:31;13.00;99.90
35240;DHT22;21376;50.954;4.716;2022-10-16T07:01:59;13.50;99.90
35240;DHT22;21376;50.954;4.716;2022-10-16T07:04:38;15.10;99.90
35240;DHT22;21376;50.954;4.716;2022-10-16T07:09:45;19.30;99.90
35240;DHT22;21376;50.954;4.716;2022-10-16T07:17:27;23.10;99.90
35240;DHT22;21376;50.954;4.716;2022-10-16T07:19:56;23.30;99.90
35240;DHT22;21376;50.954;4.716;2022-10-16T07:27:32;21.60;99.90
35240;DHT22;21376;50.954;4.716;2022-10-16T07:29:59;20.70;99.90
35240;DHT22;21376;50.954;4.716;2022-10-16T07:32:25;19.50;99.90
35240;DHT22;21376;50.954;4.716;2022-10-16T07:34:54;18.80;99.90
35240;DHT22;21376;50.954;4.716;2022-10-16T07:37:24;19.40;99.90
35240;DHT22;21376;50.954;4.716;2022-10-16T07:42:18;21.20;99.90
35240;DHT22;21376;50.954;4.716;2022-10-16T07:44:45;23.40;99.90
35240;DHT22;21376;50.954;4.716;2022-10-16T07:47:17;24.10;99.90
35240;DHT22;21376;50.954;4.716;2022-10-16T07:52:42;26.60;99.90
35240;DHT22;21376;50.954;4.716;2022-10-16T07:55:10;27.30;99.90
35240;DHT22;21376;50.954;4.716;2022-10-16T07:57:36;27.00;99.90
35240;DHT22;21376;50.954;4.716;2022-10-16T08:00:06;27.00;99.90
35240;DHT22;21376;50.954;4.716;2022-10-16T08:02:32;27.60;99.90
35240;DHT22;21376;50.954;4.716;2022-10-16T08:05:01;28.30;99.90
35240;DHT22;21376;50.954;4.716;2022-10-16T08:07:27;28.30;99.90
35240;DHT22;21376;50.954;4.716;2022-10-16T08:09:53;28.70;99.90
35240;DHT22;21376;50.954;4.716;2022-10-16T08:12:18;28.70;99.90
35240;DHT22;21376;50.954;4.716;2022-10-16T08:14:44;28.20;99.90
35240;DHT22;21376;50.954;4.716;2022-10-16T08:17:10;29.20;99.90
35240;DHT22;21376;50.954;4.716;2022-10-16T08:19:38;29.80;99.90
35240;DHT22;21376;50.954;4.716;2022-10-16T08:22:04;31.30;99.90
35240;DHT22;21376;50.954;4.716;2022-10-16T08:24:29;29.80;99.90
35240;DHT22;21376;50.954;4.716;2022-10-16T08:26:56;30.00;99.40
35240;DHT22;21376;50.954;4.716;2022-10-16T08:29:28;29.70;99.30
35240;DHT22;21376;50.954;4.716;2022-10-16T08:31:53;29.60;99.40
35240;DHT22;21376;50.954;4.716;2022-10-16T08:34:19;30.60;99.40
35240;DHT22;21376;50.954;4.716;2022-10-16T08:36:45;30.70;97.80
35240;DHT22;21376;50.954;4.716;2022-10-16T08:39:10;30.60;97.30
35240;DHT22;21376;50.954;4.716;2022-10-16T08:44:06;30.30;96.00
35240;DHT22;21376;50.954;4.716;2022-10-16T08:49:03;30.60;95.20
35240;DHT22;21376;50.954;4.716;2022-10-16T08:56:39;31.10;94.60
35240;DHT22;21376;50.954;4.716;2022-10-16T08:59:06;31.30;93.30
35240;DHT22;21376;50.954;4.716;2022-10-16T09:01:37;31.10;92.80
35240;DHT22;21376;50.954;4.716;2022-10-16T09:09:30;31.50;91.50
35240;DHT22;21376;50.954;4.716;2022-10-16T09:14:45;30.50;92.30
35240;DHT22;21376;50.954;4.716;2022-10-16T09:19:42;31.90;92.60
35240;DHT22;21376;50.954;4.716;2022-10-16T09:22:10;32.60;90.60
35240;DHT22;21376;50.954;4.716;2022-10-16T09:24:38;32.80;91.40
35240;DHT22;21376;50.954;4.716;2022-10-16T09:27:04;33.00;87.50
35240;DHT22;21376;50.954;4.716;2022-10-16T09:29:30;33.20;87.00
35240;DHT22;21376;50.954;4.716;2022-10-16T09:31:55;33.60;86.20
35240;DHT22;21376;50.954;4.716;2022-10-16T09:34:30;33.40;83.60
35240;DHT22;21376;50.954;4.716;2022-10-16T09:37:00;33.40;85.20
35240;DHT22;21376;50.954;4.716;2022-10-16T09:39:28;32.60;84.40
35240;DHT22;21376;50.954;4.716;2022-10-16T09:41:54;32.90;85.10
35240;DHT22;21376;50.954;4.716;2022-10-16T09:44:25;33.00;84.20
35240;DHT22;21376;50.954;4.716;2022-10-16T09:47:03;33.30;82.30
35240;DHT22;21376;50.954;4.716;2022-10-16T09:49:31;33.20;80.80
35240;DHT22;21376;50.954;4.716;2022-10-16T09:52:04;33.70;81.20
35240;DHT22;21376;50.954;4.716;2022-10-16T09:54:31;33.70;78.90
35240;DHT22;21376;50.954;4.716;2022-10-16T09:57:05;34.60;82.10
35240;DHT22;21376;50.954;4.716;2022-10-16T09:59:31;34.80;78.30
35240;DHT22;21376;50.954;4.716;2022-10-16T10:02:01;34.30;76.30
35240;DHT22;21376;50.954;4.716;2022-10-16T10:04:41;33.70;76.00
35240;DHT22;21376;50.954;4.716;2022-10-16T10:09:56;30.10;83.70
35240;DHT22;21376;50.954;4.716;2022-10-16T10:12:26;29.50;85.50
35240;DHT22;21376;50.954;4.716;2022-10-16T10:14:56;30.60;84.20
35240;DHT22;21376;50.954;4.716;2022-10-16T10:30:27;32.50;82.40
35240;DHT22;21376;50.954;4.716;2022-10-16T10:38:20;33.50;75.30
35240;DHT22;21376;50.954;4.716;2022-10-16T10:40:56;32.60;76.60
35240;DHT22;21376;50.954;4.716;2022-10-16T10:52:02;36.90;68.20
35240;DHT22;21376;50.954;4.716;2022-10-16T10:57:20;35.20;70.30
35240;DHT22;21376;50.954;4.716;2022-10-16T11:02:38;33.80;72.20
35240;DHT22;21376;50.954;4.716;2022-10-16T11:07:39;31.70;74.90
35240;DHT22;21376;50.954;4.716;2022-10-16T11:10:13;30.30;76.10
35240;DHT22;21376;50.954;4.716;2022-10-16T11:12:44;29.20;79.80
35240;DHT22;21376;50.954;4.716;2022-10-16T11:17:42;27.00;84.10
35240;DHT22;21376;50.954;4.716;2022-10-16T11:20:26;26.60;88.00
35240;DHT22;21376;50.954;4.716;2022-10-16T11:22:58;26.80;86.80
35240;DHT22;21376;50.954;4.716;2022-10-16T11:25:34;25.60;89.80
35240;DHT22;21376;50.954;4.716;2022-10-16T11:36:23;26.00;89.40
35240;DHT22;21376;50.954;4.716;2022-10-16T11:55:43;28.90;86.00
35240;DHT22;21376;50.954;4.716;2022-10-16T12:01:02;30.00;83.30
35240;DHT22;21376;50.954;4.716;2022-10-16T12:08:58;29.30;83.90
35240;DHT22;21376;50.954;4.716;2022-10-16T12:16:29;26.70;88.20
35240;DHT22;21376;50.954;4.716;2022-10-16T12:27:31;25.60;91.10
35240;DHT22;21376;50.954;4.716;2022-10-16T12:29:59;25.80;90.50
35240;DHT22;21376;50.954;4.716;2022-10-16T12:32:33;25.20;90.80
35240;DHT22;21376;50.954;4.716;2022-10-16T12:35:00;24.90;92.50
35240;DHT22;21376;50.954;4.716;2022-10-16T12:37:37;25.30;91.90
35240;DHT22;21376;50.954;4.716;2022-10-16T12:40:14;25.50;92.50
35240;DHT22;21376;50.954;4.716;2022-10-16T12:42:40;25.60;91.70
35240;DHT22;21376;50.954;4.716;2022-10-16T12:47:49;25.50;91.70
35240;DHT22;21376;50.954;4.716;2022-10-16T12:50:34;25.20;92.80
35240;DHT22;21376;50.954;4.716;2022-10-16T12:53:16;25.90;92.20
35240;DHT22;21376;50.954;4.716;2022-10-16T12:55:49;25.70;92.00
35240;DHT22;21376;50.954;4.716;2022-10-16T13:00:50;24.70;92.60
35240;DHT22;21376;50.954;4.716;2022-10-16T13:06:08;24.30;94.00
35240;DHT22;21376;50.954;4.716;2022-10-16T13:11:20;24.60;94.00
35240;DHT22;21376;50.954;4.716;2022-10-16T13:28:12;23.80;94.80
35240;DHT22;21376;50.954;4.716;2022-10-16T13:30:54;24.10;95.20
35240;DHT22;21376;50.954;4.716;2022-10-16T13:36:03;24.80;94.40
35240;DHT22;21376;50.954;4.716;2022-10-16T13:38:36;24.90;94.90
35240;DHT22;21376;50.954;4.716;2022-10-16T13:52:17;24.10;95.00
35240;DHT22;21376;50.954;4.716;2022-10-16T13:54:47;24.50;95.40
35240;DHT22;21376;50.954;4.716;2022-10-16T13:57:21;24.60;94.40
35240;DHT22;21376;50.954;4.716;2022-10-16T13:59:48;24.50;94.80
35240;DHT22;21376;50.954;4.716;2022-10-16T14:05:24;24.20;95.40
35240;DHT22;21376;50.954;4.716;2022-10-16T14:10:23;23.90;96.00
35240;DHT22;21376;50.954;4.716;2022-10-16T14:13:04;23.60;95.70
35240;DHT22;21376;50.954;4.716;2022-10-16T14:15:34;23.80;95.60
35240;DHT22;21376;50.954;4.716;2022-10-16T14:20:33;23.50;97.00
35240;DHT22;21376;50.954;4.716;2022-10-16T14:28:37;23.40;96.80
35240;DHT22;21376;50.954;4.716;2022-10-16T14:36:20;23.30;97.50
35240;DHT22;21376;50.954;4.716;2022-10-16T14:41:20;23.00;98.70
35240;DHT22;21376;50.954;4.716;2022-10-16T14:44:02;23.00;98.60
35240;DHT22;21376;50.954;4.716;2022-10-16T14:52:36;23.00;99.30
35240;DHT22;21376;50.954;4.716;2022-10-16T14:55:10;22.90;99.80
35240;DHT22;21376;50.954;4.716;2022-10-16T15:00:23;22.60;99.50
35240;DHT22;21376;50.954;4.716;2022-10-16T15:05:25;22.30;99.90
35240;DHT22;21376;50.954;4.716;2022-10-16T15:08:09;22.40;99.90
35240;DHT22;21376;50.954;4.716;2022-10-16T15:16:13;22.40;99.90
35240;DHT22;21376;50.954;4.716;2022-10-16T15:18:42;22.00;99.90
35240;DHT22;21376;50.954;4.716;2022-10-16T15:21:16;22.10;99.90
35240;DHT22;21376;50.954;4.716;2022-10-16T15:26:23;21.60;99.90
35240;DHT22;21376;50.954;4.716;2022-10-16T15:31:41;21.60;99.90
35240;DHT22;21376;50.954;4.716;2022-10-16T15:34:13;20.80;99.90
35240;DHT22;21376;50.954;4.716;2022-10-16T15:36:46;20.90;99.90
35240;DHT22;21376;50.954;4.716;2022-10-16T15:39:14;21.10;99.90
35240;DHT22;21376;50.954;4.716;2022-10-16T15:41:42;21.00;99.90
35240;DHT22;21376;50.954;4.716;2022-10-16T15:44:14;21.00;99.90
35240;DHT22;21376;50.954;4.716;2022-10-16T15:46:46;21.10;99.90
35240;DHT22;21376;50.954;4.716;2022-10-16T15:55:38;21.10;99.90
35240;DHT22;21376;50.954;4.716;2022-10-16T16:04:17;20.40;99.90
35240;DHT22;21376;50.954;4.716;2022-10-16T16:09:53;20.70;99.90
35240;DHT22;21376;50.954;4.716;2022-10-16T16:14:53;20.50;99.90
35240;DHT22;21376;50.954;4.716;2022-10-16T16:20:16;20.50;99.90
35240;DHT22;21376;50.954;4.716;2022-10-16T16:25:14;20.30;99.90
35240;DHT22;21376;50.954;4.716;2022-10-16T16:27:41;20.10;99.90
35240;DHT22;21376;50.954;4.716;2022-10-16T16:30:13;20.20;99.90
35240;DHT22;21376;50.954;4.716;2022-10-16T16:32:45;20.10;99.90
35240;DHT22;21376;50.954;4.716;2022-10-16T16:35:29;20.10;99.90
35240;DHT22;21376;50.954;4.716;2022-10-16T16:38:01;20.00;99.90
35240;DHT22;21376;50.954;4.716;2022-10-16T16:40:27;19.90;99.90
35240;DHT22;21376;50.954;4.716;2022-10-16T16:42:53;19.90;99.90
35240;DHT22;21376;50.954;4.716;2022-10-16T16:45:18;19.90;99.90
35240;DHT22;21376;50.954;4.716;2022-10-16T16:47:44;19.70;99.90
35240;DHT22;21376;50.954;4.716;2022-10-16T16:50:13;19.70;99.90
35240;DHT22;21376;50.954;4.716;2022-10-16T16:55:08;19.60;99.90
35240;DHT22;21376;50.954;4.716;2022-10-16T16:57:36;19.50;99.90
35240;DHT22;21376;50.954;4.716;2022-10-16T17:00:03;19.20;99.90
35240;DHT22;21376;50.954;4.716;2022-10-16T17:02:29;19.30;99.90
35240;DHT22;21376;50.954;4.716;2022-10-16T17:04:56;19.30;99.90
35240;DHT22;21376;50.954;4.716;2022-10-16T17:07:30;19.30;99.90
35240;DHT22;21376;50.954;4.716;2022-10-16T17:09:55;19.20;99.90
35240;DHT22;21376;50.954;4.716;2022-10-16T17:12:24;19.00;99.90
35240;DHT22;21376;50.954;4.716;2022-10-16T17:17:22;18.80;99.90
35240;DHT22;21376;50.954;4.716;2022-10-16T17:19:53;18.30;99.90
35240;DHT22;21376;50.954;4.716;2022-10-16T17:22:22;18.20;99.90
35240;DHT22;21376;50.954;4.716;2022-10-16T17:24:49;18.10;99.90
35240;DHT22;21376;50.954;4.716;2022-10-16T17:30:10;18.10;99.90
35240;DHT22;21376;50.954;4.716;2022-10-16T17:32:44;17.90;99.90
35240;DHT22;21376;50.954;4.716;2022-10-16T17:40:41;17.50;99.90
35240;DHT22;21376;50.954;4.716;2022-10-16T17:43:11;17.50;99.90
35240;DHT22;21376;50.954;4.716;2022-10-16T17:45:39;17.40;99.90
35240;DHT22;21376;50.954;4.716;2022-10-16T17:48:07;17.10;99.90
35240;DHT22;21376;50.954;4.716;2022-10-16T17:53:24;17.40;99.90
35240;DHT22;21376;50.954;4.716;2022-10-16T18:00:47;17.20;99.90
35240;DHT22;21376;50.954;4.716;2022-10-16T18:06:19;17.40;99.90
35240;DHT22;21376;50.954;4.716;2022-10-16T18:08:50;17.30;99.90
35240;DHT22;21376;50.954;4.716;2022-10-16T18:11:20;17.10;99.90
35240;DHT22;21376;50.954;4.716;2022-10-16T18:16:29;17.00;99.90
35240;DHT22;21376;50.954;4.716;2022-10-16T18:18:55;17.00;99.90
35240;DHT22;21376;50.954;4.716;2022-10-16T18:21:27;17.00;99.90
35240;DHT22;21376;50.954;4.716;2022-10-16T18:23:57;17.00;99.90
35240;DHT22;21376;50.954;4.716;2022-10-16T18:26:24;16.70;99.90
35240;DHT22;21376;50.954;4.716;2022-10-16T18:28:53;16.40;99.90
35240;DHT22;21376;50.954;4.716;2022-10-16T18:34:16;16.20;99.90
35240;DHT22;21376;50.954;4.716;2022-10-16T18:36:46;16.50;99.90
35240;DHT22;21376;50.954;4.716;2022-10-16T18:39:12;16.60;99.90
35240;DHT22;21376;50.954;4.716;2022-10-16T18:44:13;16.80;99.90
35240;DHT22;21376;50.954;4.716;2022-10-16T18:46:39;16.80;99.90
35240;DHT22;21376;50.954;4.716;2022-10-16T18:49:06;16.70;99.90
35240;DHT22;21376;50.954;4.716;2022-10-16T18:51:33;16.30;99.90
35240;DHT22;21376;50.954;4.716;2022-10-16T18:54:00;16.40;99.90
35240;DHT22;21376;50.954;4.716;2022-10-16T18:56:27;16.50;99.90
35240;DHT22;21376;50.954;4.716;2022-10-16T18:58:53;16.70;99.90
35240;DHT22;21376;50.954;4.716;2022-10-16T19:04:11;16.90;99.90
35240;DHT22;21376;50.954;4.716;2022-10-16T19:06:40;16.80;99.90
35240;DHT22;21376;50.954;4.716;2022-10-16T19:09:07;16.80;99.90
35240;DHT22;21376;50.954;4.716;2022-10-16T19:19:51;16.90;99.90
35240;DHT22;21376;50.954;4.716;2022-10-16T19:25:28;16.70;99.90
35240;DHT22;21376;50.954;4.716;2022-10-16T19:27:59;16.70;99.90
35240;DHT22;21376;50.954;4.716;2022-10-16T19:30:42;16.80;99.90
35240;DHT22;21376;50.954;4.716;2022-10-16T19:33:13;16.70;99.90
35240;DHT22;21376;50.954;4.716;2022-10-16T19:35:42;16.70;99.90
35240;DHT22;21376;50.954;4.716;2022-10-16T19:40:33;16.70;99.90
35240;DHT22;21376;50.954;4.716;2022-10-16T19:45:27;16.80;99.90
35240;DHT22;21376;50.954;4.716;2022-10-16T19:50:22;16.80;99.90
35240;DHT22;21376;50.954;4.716;2022-10-16T19:55:25;17.10;99.90
35240;DHT22;21376;50.954;4.716;2022-10-16T20:00:19;17.00;99.90
35240;DHT22;21376;50.954;4.716;2022-10-16T20:02:48;16.90;99.90
35240;DHT22;21376;50.954;4.716;2022-10-16T20:05:16;16.90;99.90
35240;DHT22;21376;50.954;4.716;2022-10-16T20:07:42;16.70;99.90
35240;DHT22;21376;50.954;4.716;2022-10-16T20:10:08;16.90;99.90
35240;DHT22;21376;50.954;4.716;2022-10-16T20:12:34;16.90;99.90
35240;DHT22;21376;50.954;4.716;2022-10-16T20:15:11;17.00;99.90
35240;DHT22;21376;50.954;4.716;2022-10-16T20:17:43;17.20;99.90
35240;DHT22;21376;50.954;4.716;2022-10-16T20:20:10;17.20;99.90
35240;DHT22;21376;50.954;4.716;2022-10-16T20:22:35;16.90;99.90
35240;DHT22;21376;50.954;4.716;2022-10-16T20:25:04;17.20;99.90
35240;DHT22;21376;50.954;4.716;2022-10-16T20:27:30;17.20;99.90
35240;DHT22;21376;50.954;4.716;2022-10-16T20:30:06;17.10;99.90
35240;DHT22;21376;50.954;4.716;2022-10-16T20:32:35;17.10;99.90
35240;DHT22;21376;50.954;4.716;2022-10-16T20:38:04;17.20;99.90
35240;DHT22;21376;50.954;4.716;2022-10-16T20:40:32;17.10;99.90
35240;DHT22;21376;50.954;4.716;2022-10-16T20:43:17;17.10;99.90
35240;DHT22;21376;50.954;4.716;2022-10-16T20:48:15;17.00;99.90
35240;DHT22;21376;50.954;4.716;2022-10-16T20:50:44;17.00;99.90
35240;DHT22;21376;50.954;4.716;2022-10-16T20:53:12;17.00;99.90
35240;DHT22;21376;50.954;4.716;2022-10-16T20:55:48;17.00;99.90
35240;DHT22;21376;50.954;4.716;2022-10-16T21:03:31;16.80;99.90
35240;DHT22;21376;50.954;4.716;2022-10-16T21:05:57;16.60;99.90
35240;DHT22;21376;50.954;4.716;2022-10-16T21:10:56;16.30;99.90
35240;DHT22;21376;50.954;4.716;2022-10-16T21:13:27;16.20;99.90
35240;DHT22;21376;50.954;4.716;2022-10-16T21:15:55;15.70;99.90
35240;DHT22;21376;50.954;4.716;2022-10-16T21:20:53;15.80;99.90
35240;DHT22;21376;50.954;4.716;2022-10-16T21:23:18;15.80;99.90
35240;DHT22;21376;50.954;4.716;2022-10-16T21:26:02;15.90;99.90
35240;DHT22;21376;50.954;4.716;2022-10-16T21:28:31;15.90;99.90
35240;DHT22;21376;50.954;4.716;2022-10-16T21:34:01;16.10;99.90
35240;DHT22;21376;50.954;4.716;2022-10-16T21:36:38;16.10;99.90
35240;DHT22;21376;50.954;4.716;2022-10-16T21:42:10;15.80;99.90
35240;DHT22;21376;50.954;4.716;2022-10-16T21:47:43;15.90;99.90
35240;DHT22;21376;50.954;4.716;2022-10-16T21:50:14;16.00;99.90
35240;DHT22;21376;50.954;4.716;2022-10-16T21:58:21;15.80;99.90
35240;DHT22;21376;50.954;4.716;2022-10-16T22:01:07;15.50;99.90
35240;DHT22;21376;50.954;4.716;2022-10-16T22:03:35;15.60;99.90
35240;DHT22;21376;50.954;4.716;2022-10-16T22:06:04;15.70;99.90
35240;DHT22;21376;50.954;4.716;2022-10-16T22:08:31;15.70;99.90
35240;DHT22;21376;50.954;4.716;2022-10-16T22:11:05;15.60;99.90
35240;DHT22;21376;50.954;4.716;2022-10-16T22:16:02;15.50;99.90
35240;DHT22;21376;50.954;4.716;2022-10-16T22:18:31;15.70;99.90
35240;DHT22;21376;50.954;4.716;2022-10-16T22:43:08;15.60;99.90
35240;DHT22;21376;50.954;4.716;2022-10-16T22:45:40;15.60;99.90
35240;DHT22;21376;50.954;4.716;2022-10-16T22:48:06;15.30;99.90
35240;DHT22;21376;50.954;4.716;2022-10-16T22:50:35;15.40;99.90
35240;DHT22;21376;50.954;4.716;2022-10-16T22:53:04;15.40;99.90
35240;DHT22;21376;50.954;4.716;2022-10-16T22:58:43;15.60;99.90
35240;DHT22;21376;50.954;4.716;2022-10-16T23:03:58;15.50;99.90
35240;DHT22;21376;50.954;4.716;2022-10-16T23:06:27;15.40;99.90
35240;DHT22;21376;50.954;4.716;2022-10-16T23:11:40;15.40;99.90
35240;DHT22;21376;50.954;4.716;2022-10-16T23:14:09;15.30;99.90
35240;DHT22;21376;50.954;4.716;2022-10-16T23:19:04;15.30;99.90
35240;DHT22;21376;50.954;4.716;2022-10-16T23:24:02;15.20;99.90
35240;DHT22;21376;50.954;4.716;2022-10-16T23:26:28;15.20;99.90
35240;DHT22;21376;50.954;4.716;2022-10-16T23:28:57;15.10;99.90
35240;DHT22;21376;50.954;4.716;2022-10-16T23:31:39;15.20;99.90
35240;DHT22;21376;50.954;4.716;2022-10-16T23:34:08;15.00;99.90